Time;durP1;ratioP1;P1;durP2;ratioP2;P2;SDS_P1;SDS_P2;PMS_P1;PMS_P2;Temp;Humidity;BMP_temperature;BMP_pressure;BME280_temperature;BME280_humidity;BME280_pressure;Samples;Min_cycle;Max_cycle;Signal;HPM_P1;HPM_P2
2023/06/04 00:00:49;;;;;;;6.88;4.20;;;14.30;96.10;;;14.11;91.65;97206.50;5050060;28;20028;-36
2023/06/04 00:03:14;;;;;;;7.80;4.68;;;14.30;96.20;;;14.10;90.92;97210.06;5050642;28;20033;-36
2023/06/04 00:05:40;;;;;;;6.95;4.70;;;14.30;96.10;;;14.06;90.39;97211.19;5051457;28;20094;-36
2023/06/04 00:08:06;;;;;;;4.95;4.10;;;14.20;96.00;;;14.03;89.99;97217.53;5048357;28;20025;-36
2023/06/04 00:10:33;;;;;;;6.97;4.40;;;14.20;95.90;;;14.02;89.32;97213.16;5050489;28;20036;-36
2023/06/04 00:12:59;;;;;;;6.70;4.30;;;14.20;96.20;;;13.98;89.72;97211.59;5050306;28;20074;-36
2023/06/04 00:15:25;;;;;;;8.02;4.45;;;14.20;95.90;;;13.95;91.15;97211.75;5052366;28;20029;-36
2023/06/04 00:17:51;;;;;;;7.75;4.20;;;14.10;96.20;;;13.78;90.98;97188.78;5049502;28;20029;-36
2023/06/04 00:20:18;;;;;;;6.22;4.25;;;14.10;96.30;;;13.89;92.21;97202.34;5052376;28;20060;-36
2023/06/04 00:22:44;;;;;;;7.35;4.32;;;14.00;96.50;;;13.84;93.57;97207.03;5049054;28;20033;-36
2023/06/04 00:25:10;;;;;;;5.90;4.20;;;14.00;96.80;;;13.80;94.23;97208.13;5051945;28;20063;-36
2023/06/04 00:27:37;;;;;;;6.85;4.38;;;14.00;97.00;;;13.75;93.79;97204.88;5050923;28;20033;-36
2023/06/04 00:30:04;;;;;;;7.07;4.07;;;13.90;96.90;;;13.68;93.91;97192.88;5051462;28;20025;-36
2023/06/04 00:32:29;;;;;;;7.20;3.90;;;13.90;97.00;;;13.70;93.38;97209.56;5045515;28;20033;-36
2023/06/04 00:34:57;;;;;;;7.30;4.75;;;13.80;96.90;;;13.68;93.17;97211.44;5051564;28;20417;-36
2023/06/04 00:37:24;;;;;;;7.32;4.32;;;13.80;96.90;;;13.57;93.39;97196.09;5050663;28;20114;-36
2023/06/04 00:39:51;;;;;;;6.28;4.13;;;13.80;97.00;;;13.61;93.30;97208.25;5048867;28;20933;-36
2023/06/04 00:42:17;;;;;;;6.07;3.72;;;13.80;97.00;;;13.58;93.21;97205.75;5063473;28;20043;-36
2023/06/04 00:44:45;;;;;;;5.20;3.75;;;13.70;97.00;;;13.55;92.29;97208.56;5048615;28;20044;-36
2023/06/04 00:47:15;;;;;;;8.63;4.07;;;13.70;96.80;;;13.53;91.40;97215.72;5049390;28;20362;-36
2023/06/04 00:49:41;;;;;;;6.10;3.97;;;13.70;96.70;;;13.50;90.17;97216.75;5045833;28;20115;-36
2023/06/04 00:52:10;;;;;;;11.15;4.55;;;13.70;96.40;;;13.50;91.50;97223.84;5052493;28;20048;-36
2023/06/04 00:54:40;;;;;;;5.88;3.72;;;13.70;96.70;;;13.46;94.18;97225.78;5049149;28;20021;-36
2023/06/04 00:57:08;;;;;;;5.82;4.32;;;13.60;97.20;;;13.42;96.65;97218.06;5050866;28;20025;-36
2023/06/04 00:59:37;;;;;;;5.50;3.95;;;13.60;97.80;;;13.36;97.90;97230.69;5051559;28;20040;-36
2023/06/04 01:02:12;;;;;;;5.63;4.13;;;13.50;98.50;;;13.28;99.00;97222.25;5048637;28;20504;-36
2023/06/04 01:05:18;;;;;;;6.47;4.40;;;13.50;98.40;;;13.20;99.34;97227.06;5051010;28;20123;-36
2023/06/04 01:07:46;;;;;;;8.30;4.20;;;13.40;98.50;;;13.06;98.72;97209.22;5049092;28;20081;-36
2023/06/04 01:10:13;;;;;;;5.05;3.90;;;13.30;98.40;;;13.12;95.64;97234.56;5048116;28;20580;-36
2023/06/04 01:12:42;;;;;;;6.53;3.72;;;13.30;97.90;;;13.12;93.96;97227.47;5050272;28;20124;-36
2023/06/04 01:15:10;;;;;;;6.88;4.05;;;13.30;97.60;;;13.13;91.83;97223.88;5050036;28;20028;-36
2023/06/04 01:17:42;;;;;;;7.07;4.20;;;13.30;97.10;;;13.13;90.28;97228.31;5046986;28;20628;-36
2023/06/04 01:20:36;;;;;;;;;;;13.30;96.90;;;13.13;90.04;97223.88;5049337;28;20025;-36
2023/06/04 01:23:34;;;;;;;4.55;3.50;;;13.30;96.80;;;13.12;91.74;97227.47;5051060;28;20701;-36
2023/06/04 01:26:04;;;;;;;8.00;4.13;;;13.40;97.20;;;13.09;92.90;97235.56;5049303;28;20162;-36
2023/06/04 01:28:34;;;;;;;5.57;3.80;;;13.30;97.40;;;12.97;92.31;97223.81;5049864;28;20036;-36
2023/06/04 01:31:01;;;;;;;10.25;3.92;;;13.20;97.30;;;12.99;92.42;97229.88;5049365;28;20035;-36
2023/06/04 01:33:27;;;;;;;5.82;3.47;;;13.20;97.30;;;12.85;93.12;97212.94;5049959;28;20037;-36
2023/06/04 01:35:53;;;;;;;6.50;3.85;;;13.10;97.50;;;12.91;93.62;97223.22;5046752;28;20044;-36
2023/06/04 01:38:19;;;;;;;5.93;3.38;;;13.10;97.70;;;12.91;93.48;97223.22;5050505;28;20396;-36
2023/06/04 01:40:46;;;;;;;4.90;3.40;;;13.10;97.70;;;12.87;92.28;97224.31;5047128;28;20046;-36
2023/06/04 01:43:12;;;;;;;4.75;3.22;;;13.00;97.50;;;12.83;92.13;97222.75;5049147;28;20128;-36
2023/06/04 01:45:38;;;;;;;5.68;3.70;;;13.00;97.40;;;12.79;93.04;97222.91;5048662;28;20028;-36
2023/06/04 01:48:05;;;;;;;6.90;3.60;;;13.00;97.60;;;12.77;92.63;97221.25;5047625;28;20491;-36
2023/06/04 01:50:31;;;;;;;6.20;3.50;;;13.00;97.60;;;12.75;91.90;97223.97;5048642;28;20025;-36
2023/06/04 01:52:58;;;;;;;5.13;3.45;;;13.00;97.40;;;12.72;92.37;97221.50;5049586;28;20021;-36
2023/06/04 01:55:28;;;;;;;4.32;2.90;;;12.90;97.50;;;12.70;93.29;97228.63;5049882;28;20056;-36
2023/06/04 01:57:53;;;;;;;4.15;3.20;;;12.90;97.70;;;12.70;92.73;97217.19;5049108;28;20025;-36
2023/06/04 02:00:19;;;;;;;4.30;2.97;;;12.90;97.70;;;12.69;91.61;97218.97;5050690;28;20036;-36
2023/06/04 02:02:47;;;;;;;4.80;3.03;;;12.90;97.40;;;12.70;89.13;97225.13;5046836;28;20035;-36
2023/06/04 02:05:14;;;;;;;5.18;3.20;;;12.90;96.90;;;12.70;90.00;97225.97;5047170;28;20055;-36
2023/06/04 02:07:44;;;;;;;8.48;3.22;;;12.90;97.00;;;12.68;92.52;97227.00;5048141;28;20541;-36
2023/06/04 02:10:12;;;;;;;7.95;3.72;;;12.90;97.60;;;12.65;95.73;97225.38;5050250;28;20554;-36
2023/06/04 02:12:40;;;;;;;5.53;3.30;;;12.90;98.30;;;12.59;98.59;97218.56;5046467;28;20016;-36
2023/06/04 02:15:10;;;;;;;5.18;3.88;;;12.80;98.90;;;12.52;100.00;97218.94;5049209;28;20036;-36
2023/06/04 02:17:42;;;;;;;5.88;3.60;;;12.70;99.30;;;12.48;100.00;97231.44;5049021;28;20564;-36
2023/06/04 02:20:09;;;;;;;5.80;3.20;;;12.70;99.70;;;12.44;100.00;97226.38;5050479;28;20032;-36
2023/06/04 02:22:35;;;;;;;8.35;3.90;;;12.70;99.80;;;12.38;100.00;97228.38;5046461;28;20045;-36
2023/06/04 02:25:01;;;;;;;5.18;3.72;;;12.60;99.50;;;12.32;100.00;97228.66;5050691;28;20044;-36
2023/06/04 02:27:27;;;;;;;7.68;3.95;;;12.50;99.70;;;12.29;100.00;97230.59;5048403;28;20032;-36
2023/06/04 02:29:53;;;;;;;6.53;3.70;;;12.50;99.70;;;12.17;100.00;97217.03;5047694;28;20494;-36
2023/06/04 02:32:19;;;;;;;5.93;3.45;;;12.50;99.90;;;12.17;100.00;97227.59;5033293;28;20486;-36
2023/06/04 02:34:45;;;;;;;6.45;3.60;;;12.40;99.90;;;12.12;100.00;97231.38;5047056;28;20028;-36
2023/06/04 02:37:11;;;;;;;7.13;3.95;;;12.30;99.90;;;12.05;100.00;97227.31;5048393;28;20421;-36
2023/06/04 02:39:36;;;;;;;6.65;4.18;;;12.30;99.90;;;12.03;100.00;97235.28;5044018;28;20033;-36
2023/06/04 02:42:02;;;;;;;5.70;4.10;;;12.20;99.90;;;11.95;100.00;97233.00;5046777;28;20040;-36
2023/06/04 02:44:29;;;;;;;6.97;4.40;;;12.20;99.90;;;11.96;100.00;97231.22;5045535;28;20067;-36
2023/06/04 02:46:55;;;;;;;6.00;4.15;;;12.20;99.90;;;11.93;100.00;97245.41;5046723;28;20028;-36
2023/06/04 02:49:21;;;;;;;6.35;4.25;;;12.20;99.90;;;11.87;100.00;97235.09;5047581;28;20033;-36
2023/06/04 02:51:47;;;;;;;6.35;4.18;;;12.10;99.90;;;11.82;100.00;97230.00;5045131;28;20039;-36
2023/06/04 02:54:12;;;;;;;6.00;4.68;;;12.10;99.90;;;11.77;100.00;97237.31;5050684;28;20037;-36
2023/06/04 02:56:39;;;;;;;6.75;4.47;;;12.00;99.90;;;11.71;100.00;97229.63;5048305;28;20083;-36
2023/06/04 02:59:05;;;;;;;6.57;4.78;;;12.00;99.90;;;11.70;100.00;97238.50;5052848;28;20329;-36
2023/06/04 03:01:31;;;;;;;6.95;4.75;;;12.00;99.90;;;11.70;100.00;97235.84;5051959;28;20028;-36
2023/06/04 03:03:57;;;;;;;7.90;4.80;;;11.90;99.90;;;11.71;100.00;97231.41;5052087;28;20036;-36
2023/06/04 03:06:23;;;;;;;8.30;4.28;;;11.90;99.90;;;11.69;100.00;97233.28;5052785;28;20032;-36
2023/06/04 03:08:50;;;;;;;7.15;5.05;;;11.90;99.90;;;11.57;100.00;97222.31;5048762;28;20410;-36
2023/06/04 03:11:20;;;;;;;6.45;4.07;;;11.90;99.90;;;11.64;100.00;97236.09;5052659;28;20033;-36
2023/06/04 03:13:46;;;;;;;6.25;3.72;;;11.90;99.90;;;11.67;100.00;97249.19;5048448;28;20721;-36
2023/06/04 03:16:12;;;;;;;5.75;4.00;;;11.90;99.90;;;11.69;100.00;97246.47;5053302;28;20045;-36
2023/06/04 03:18:41;;;;;;;5.60;3.88;;;11.90;99.90;;;11.70;100.00;97245.53;5051709;28;20033;-36
2023/06/04 03:21:08;;;;;;;5.68;3.58;;;11.90;99.90;;;11.69;100.00;97241.19;5052968;28;20167;-36
2023/06/04 03:23:35;;;;;;;8.93;3.90;;;12.00;99.90;;;11.69;100.00;97243.84;5049378;28;20074;-36
2023/06/04 03:26:05;;;;;;;5.35;3.58;;;11.90;99.90;;;11.68;100.00;97244.75;5052477;28;20046;-36
2023/06/04 03:28:32;;;;;;;5.10;3.22;;;11.90;99.90;;;11.67;100.00;97254.47;5052122;28;20027;-36
2023/06/04 03:30:59;;;;;;;7.18;3.33;;;11.90;99.90;;;11.69;100.00;97257.06;5049125;28;20035;-36
2023/06/04 03:33:24;;;;;;;5.57;3.20;;;11.90;99.90;;;11.69;100.00;97257.06;5053005;28;20102;-36
2023/06/04 03:35:52;;;;;;;6.50;3.72;;;11.90;99.90;;;11.68;100.00;97260.59;5051063;28;20484;-36
2023/06/04 03:38:18;;;;;;;5.25;3.50;;;11.90;99.90;;;11.62;100.00;97249.38;5049185;28;20624;-36
2023/06/04 03:40:45;;;;;;;4.90;3.40;;;11.90;99.90;;;11.64;100.00;97257.25;5051361;28;20455;-36
2023/06/04 03:43:11;;;;;;;5.28;3.35;;;11.90;99.90;;;11.65;100.00;97262.47;5049512;28;20463;-36
2023/06/04 03:45:37;;;;;;;6.50;3.60;;;11.90;99.90;;;11.70;100.00;97254.34;5051334;28;20032;-36
2023/06/04 03:48:02;;;;;;;4.25;3.05;;;11.90;99.90;;;11.72;100.00;97259.53;5048609;28;20059;-36
2023/06/04 03:50:28;;;;;;;6.43;3.47;;;12.00;99.90;;;11.67;100.00;97246.53;5051614;28;20077;-36
2023/06/04 03:52:54;;;;;;;4.47;3.00;;;12.00;99.90;;;11.73;100.00;97248.06;5048335;28;20496;-36
2023/06/04 03:55:19;;;;;;;5.80;3.40;;;12.00;99.90;;;11.77;100.00;97260.19;5052205;28;20083;-36
2023/06/04 03:57:45;;;;;;;4.75;3.13;;;12.00;99.90;;;11.69;100.00;97239.41;5051285;28;20028;-36
2023/06/04 04:00:12;;;;;;;6.78;3.53;;;12.00;99.90;;;11.82;100.00;97263.50;5050176;28;20028;-36
2023/06/04 04:02:39;;;;;;;6.13;3.50;;;12.10;99.90;;;11.84;100.00;97264.28;5048874;28;20158;-36
2023/06/04 04:05:05;;;;;;;6.70;3.80;;;12.10;99.90;;;11.85;100.00;97264.22;5052345;28;20024;-36
2023/06/04 04:07:31;;;;;;;6.20;3.45;;;12.10;99.90;;;11.87;100.00;97264.16;5050878;28;20066;-36
2023/06/04 04:09:56;;;;;;;6.88;3.13;;;12.10;99.90;;;11.91;100.00;97268.41;5050510;28;20029;-36
2023/06/04 04:12:22;;;;;;;8.60;3.60;;;12.20;99.90;;;11.85;100.00;97253.66;5049746;28;20016;-36
2023/06/04 04:14:48;;;;;;;4.15;2.90;;;12.20;99.90;;;11.98;99.70;97269.84;5049773;28;20037;-36
2023/06/04 04:17:14;;;;;;;5.82;3.38;;;12.20;99.90;;;11.98;99.30;97269.84;5048050;28;20032;-36
2023/06/04 04:19:40;;;;;;;5.63;3.17;;;12.30;99.90;;;12.04;99.11;97268.72;5049662;28;20480;-36
2023/06/04 04:22:06;;;;;;;4.15;3.08;;;12.30;99.90;;;12.08;99.14;97280.88;5047070;28;20045;-36
2023/06/04 04:24:35;;;;;;;4.13;2.60;;;12.30;99.90;;;12.11;99.26;97282.53;5052344;28;20025;-36
2023/06/04 04:27:03;;;;;;;7.70;3.60;;;12.40;99.90;;;12.11;98.50;97285.16;5051485;28;20029;-36
2023/06/04 04:29:32;;;;;;;4.78;3.50;;;12.40;99.90;;;12.13;98.26;97280.66;5053645;28;20063;-36
2023/06/04 04:32:17;;;;;;;4.15;3.55;;;12.40;99.90;;;12.16;99.71;97289.31;5047462;28;20211;-36
2023/06/04 04:34:54;;;;;;;6.25;3.53;;;12.40;99.90;;;12.21;100.00;97294.41;5049048;28;20051;-36
2023/06/04 04:37:24;;;;;;;6.20;3.45;;;12.40;99.90;;;12.25;100.00;97293.31;5049983;28;20044;-36
2023/06/04 04:39:52;;;;;;;6.20;3.67;;;12.50;99.90;;;12.27;100.00;97291.47;5046711;28;20028;-36
2023/06/04 04:42:19;;;;;;;5.45;3.47;;;12.60;99.90;;;12.28;99.82;97287.91;5049925;28;20029;-36
2023/06/04 04:44:47;;;;;;;4.35;3.42;;;12.60;99.90;;;12.38;100.00;97289.22;5050856;28;20028;-36
2023/06/04 04:47:15;;;;;;;4.63;3.65;;;12.60;99.90;;;12.45;100.00;97292.41;5050478;28;20025;-36
2023/06/04 04:49:40;;;;;;;6.85;3.83;;;12.70;99.90;;;12.49;99.06;97290.47;5047599;28;20377;-36
2023/06/04 04:52:06;;;;;;;3.97;3.05;;;12.70;99.90;;;12.56;98.26;97292.78;5049931;28;20033;-36
2023/06/04 04:54:32;;;;;;;5.72;3.50;;;12.80;99.90;;;12.62;97.53;97301.38;5050791;28;20029;-36
2023/06/04 04:56:57;;;;;;;5.55;3.33;;;12.80;99.90;;;12.66;97.15;97295.84;5049380;28;20041;-36
2023/06/04 04:59:23;;;;;;;4.38;3.40;;;12.90;99.90;;;12.67;97.06;97292.28;5051653;28;20452;-36
2023/06/04 05:01:49;;;;;;;4.95;3.20;;;12.90;99.90;;;12.74;96.96;97303.41;5047914;28;20112;-36
2023/06/04 05:04:15;;;;;;;4.93;3.22;;;13.00;99.90;;;12.71;96.78;97288.56;5048263;28;20242;-36
2023/06/04 05:06:40;;;;;;;5.80;3.58;;;13.00;99.90;;;12.84;96.17;97298.56;5048438;28;20037;-36
2023/06/04 05:09:07;;;;;;;4.95;3.05;;;13.10;99.90;;;12.90;95.60;97306.19;5047406;28;20036;-36
2023/06/04 05:11:33;;;;;;;4.82;3.33;;;13.10;99.90;;;12.91;91.20;97298.19;5050600;28;20498;-36
2023/06/04 05:13:58;;;;;;;4.07;3.10;;;13.20;99.90;;;12.96;90.67;97308.56;5046462;28;20505;-36
2023/06/04 05:16:25;;;;;;;3.67;2.85;;;13.20;99.70;;;13.05;90.12;97315.22;5055719;28;20036;-36
2023/06/04 05:18:51;;;;;;;5.00;3.10;;;13.30;99.50;;;13.09;88.61;97307.03;5054115;28;20032;-36
2023/06/04 05:21:17;;;;;;;8.35;3.40;;;13.30;99.20;;;13.12;88.31;97309.53;5055337;28;20048;-36
2023/06/04 05:23:47;;;;;;;5.75;2.88;;;13.30;99.00;;;13.15;89.61;97317.34;5055162;28;20043;-36
2023/06/04 05:26:13;;;;;;;5.35;3.53;;;13.40;99.40;;;13.15;91.03;97316.47;5054819;28;20035;-36
2023/06/04 05:28:43;;;;;;;5.20;3.00;;;13.30;99.60;;;13.08;94.46;97315.94;5050342;28;20025;-37
2023/06/04 05:31:09;;;;;;;4.80;3.20;;;13.30;99.90;;;13.04;95.61;97330.22;5049216;28;20048;-36
2023/06/04 05:33:35;;;;;;;5.25;3.08;;;13.20;99.90;;;12.98;97.23;97323.44;5046439;28;20131;-36
2023/06/04 05:36:01;;;;;;;4.63;3.13;;;13.20;99.90;;;12.97;98.28;97326.16;5051687;28;20028;-36
2023/06/04 05:38:30;;;;;;;5.03;3.10;;;13.20;99.90;;;12.94;97.28;97324.53;5048612;28;20045;-36
2023/06/04 05:40:56;;;;;;;4.35;2.83;;;13.20;99.90;;;12.94;96.32;97332.47;5047812;28;20040;-36
2023/06/04 05:43:22;;;;;;;4.78;3.20;;;13.10;99.90;;;12.92;94.74;97334.34;5049538;28;20059;-36
2023/06/04 05:45:48;;;;;;;3.97;2.80;;;13.10;99.90;;;12.76;93.69;97313.03;5043728;28;20401;-36
2023/06/04 05:48:13;;;;;;;8.05;3.33;;;13.10;99.90;;;12.83;93.60;97332.13;5044002;28;20028;-36
2023/06/04 05:50:39;;;;;;;4.18;2.70;;;13.10;99.90;;;12.83;93.37;97331.25;5047065;28;20021;-36
2023/06/04 05:53:05;;;;;;;4.65;2.70;;;13.10;99.90;;;12.89;93.60;97331.81;5050480;28;20024;-36
2023/06/04 05:55:31;;;;;;;4.20;2.70;;;13.00;99.90;;;13.08;93.22;97333.56;5049870;28;20306;-36
2023/06/04 05:57:56;;;;;;;4.38;3.05;;;13.20;99.90;;;13.32;92.97;97339.53;5049905;28;20080;-36
2023/06/04 06:00:22;;;;;;;3.83;2.78;;;13.50;99.90;;;13.53;89.78;97341.13;5048977;28;20079;-36
2023/06/04 06:02:50;;;;;;;7.80;3.50;;;13.70;99.80;;;13.68;87.64;97320.09;5046030;28;20093;-37
2023/06/04 06:05:17;;;;;;;7.28;3.28;;;13.90;99.30;;;14.05;85.79;97344.69;5048779;28;20031;-36
2023/06/04 06:07:43;;;;;;;9.52;3.70;;;14.20;99.10;;;14.24;80.62;97349.91;5046571;28;20032;-36
2023/06/04 06:10:09;;;;;;;4.55;3.20;;;14.40;97.80;;;14.47;80.04;97343.38;5048720;28;20151;-36
2023/06/04 06:12:35;;;;;;;5.03;3.00;;;14.60;97.60;;;14.69;78.42;97349.25;5047609;28;20025;-36
2023/06/04 06:15:01;;;;;;;5.20;3.25;;;14.80;97.20;;;14.92;78.11;97343.66;5048521;28;20051;-36
2023/06/04 06:17:28;;;;;;;5.60;2.80;;;15.00;97.10;;;15.18;76.40;97345.72;5046272;28;20393;-36
2023/06/04 06:19:54;;;;;;;4.93;3.22;;;15.20;96.80;;;15.43;72.88;97347.81;5047325;28;20024;-36
2023/06/04 06:22:20;;;;;;;7.38;3.00;;;15.50;95.80;;;15.66;70.36;97345.63;5048186;28;20024;-36
2023/06/04 06:24:48;;;;;;;3.70;2.20;;;15.70;95.50;;;15.89;67.31;97354.09;5046312;28;20511;-36
2023/06/04 06:27:15;;;;;;;3.42;2.30;;;15.90;94.40;;;16.12;66.25;97364.22;5048700;28;20032;-36
2023/06/04 06:29:41;;;;;;;3.33;2.10;;;16.10;94.50;;;16.34;57.22;97360.25;5044210;28;20538;-36
2023/06/04 06:32:07;;;;;;;4.45;2.25;;;16.40;91.50;;;16.63;55.46;97362.94;5046097;28;20481;-36
2023/06/04 06:34:33;;;;;;;6.28;2.00;;;16.70;90.70;;;16.79;53.31;97366.34;5048922;28;20293;-36
2023/06/04 06:36:59;;;;;;;5.47;2.60;;;16.90;89.50;;;17.02;51.70;97367.59;5046563;28;20593;-37
2023/06/04 06:39:25;;;;;;;3.97;2.05;;;17.00;87.70;;;17.13;53.64;97361.59;5048531;28;20036;-36
2023/06/04 06:41:51;;;;;;;2.63;2.03;;;17.20;88.50;;;17.30;52.71;97365.81;5045290;28;20032;-36
2023/06/04 06:44:16;;;;;;;4.50;2.00;;;17.30;89.10;;;17.48;51.44;97369.09;5049121;28;20523;-36
2023/06/04 06:46:42;;;;;;;7.20;1.70;;;17.50;87.40;;;17.71;49.71;97372.91;5045876;28;20525;-36
2023/06/04 06:49:08;;;;;;;3.22;2.00;;;17.70;86.20;;;17.89;49.13;97374.41;5048172;28;20021;-36
2023/06/04 06:51:34;;;;;;;2.80;1.80;;;17.80;84.50;;;18.00;48.72;97378.16;5049859;28;20386;-37
2023/06/04 06:53:59;;;;;;;3.67;1.67;;;18.00;84.40;;;17.91;48.72;97375.16;5048968;28;20039;-37
2023/06/04 06:56:26;;;;;;;2.50;1.75;;;17.90;83.60;;;17.78;51.21;97376.88;5049049;28;20473;-36
2023/06/04 06:58:51;;;;;;;2.45;1.80;;;17.80;85.60;;;17.69;51.43;97372.16;5046700;28;20043;-36
2023/06/04 07:01:17;;;;;;;2.78;1.92;;;17.70;86.60;;;17.68;49.87;97373.16;5048181;28;20025;-36
2023/06/04 07:03:43;;;;;;;5.55;2.42;;;17.70;85.90;;;17.61;50.26;97372.69;5046772;28;20045;-36
2023/06/04 07:06:09;;;;;;;2.40;1.58;;;17.60;85.40;;;17.62;49.61;97362.88;5047322;28;20707;-36
2023/06/04 07:08:35;;;;;;;2.20;1.70;;;17.60;85.10;;;17.96;48.49;97379.31;5048552;28;20072;-36
2023/06/04 07:11:03;;;;;;;3.25;1.67;;;17.90;83.70;;;18.31;46.47;97369.78;5048056;28;20025;-36
2023/06/04 07:13:31;;;;;;;5.53;1.90;;;18.30;81.70;;;18.72;46.13;97380.34;5059920;28;20025;-36
2023/06/04 07:15:58;;;;;;;2.15;1.50;;;18.70;81.00;;;19.11;45.92;97376.69;5045903;28;20029;-36
2023/06/04 07:18:23;;;;;;;3.97;1.60;;;19.10;80.30;;;19.34;44.71;97379.53;5048487;28;20033;-36
2023/06/04 07:20:50;;;;;;;3.95;2.08;;;19.40;78.40;;;19.44;44.13;97388.59;5045051;28;20091;-36
2023/06/04 07:23:16;;;;;;;8.02;1.80;;;19.50;77.80;;;19.50;44.17;97388.13;5048629;28;20053;-36
2023/06/04 07:25:42;;;;;;;3.60;1.80;;;19.60;77.20;;;19.52;44.74;97388.88;5046365;28;20385;-36
2023/06/04 07:28:07;;;;;;;3.25;2.08;;;19.60;77.60;;;19.35;43.68;97387.44;5048540;28;20028;-36
2023/06/04 07:30:33;;;;;;;3.20;1.95;;;19.60;76.40;;;19.35;45.69;97386.59;5048299;28;20078;-36
2023/06/04 07:32:59;;;;;;;4.55;1.90;;;19.50;78.60;;;19.41;45.02;97378.13;5043801;28;20041;-36
2023/06/04 07:35:25;;;;;;;5.78;1.70;;;19.50;77.90;;;19.34;44.97;97376.84;5048141;28;20420;-36
2023/06/04 07:37:51;;;;;;;4.00;1.95;;;19.50;79.30;;;19.29;44.95;97381.69;5045469;28;20037;-36
2023/06/04 07:40:17;;;;;;;3.63;1.67;;;19.40;76.60;;;19.40;45.25;97382.63;5048063;28;20112;-36
2023/06/04 07:42:45;;;;;;;3.60;1.95;;;19.50;77.70;;;19.52;44.71;97377.31;5044703;28;20128;-36
2023/06/04 07:45:11;;;;;;;2.88;1.77;;;19.50;77.30;;;19.41;45.52;97378.13;5051407;28;20505;-36
2023/06/04 07:47:36;;;;;;;5.05;2.33;;;19.40;76.40;;;19.18;44.93;97379.78;5049663;28;20029;-37
2023/06/04 07:50:05;;;;;;;3.80;2.05;;;19.30;76.90;;;19.05;45.40;97385.16;5049929;28;20028;-37
2023/06/04 07:52:31;;;;;;;3.10;1.98;;;19.10;77.60;;;19.11;45.55;97368.66;5052334;28;20039;-36
2023/06/04 07:54:57;;;;;;;3.65;1.80;;;19.20;78.30;;;19.34;45.52;97376.84;5049850;28;20386;-36
2023/06/04 07:57:22;;;;;;;2.22;1.55;;;19.30;78.40;;;19.47;45.94;97377.69;5049614;28;20135;-36
2023/06/04 07:59:49;;;;;;;4.18;2.20;;;19.50;78.20;;;19.67;45.35;97373.53;5048818;28;20120;-36
2023/06/04 08:02:15;;;;;;;3.58;2.05;;;19.60;78.30;;;19.88;47.33;97367.56;5048248;28;20093;-36
2023/06/04 08:04:41;;;;;;;4.38;1.95;;;19.80;78.60;;;20.05;46.23;97369.81;5049366;28;20468;-36
2023/06/04 08:07:07;;;;;;;3.80;2.15;;;20.00;78.70;;;20.19;45.42;97361.59;5050717;28;20044;-36
2023/06/04 08:09:32;;;;;;;4.53;2.53;;;20.20;78.30;;;20.32;44.66;97368.69;5052942;28;20090;-36
2023/06/04 08:11:59;;;;;;;3.22;2.13;;;20.30;77.90;;;20.41;45.40;97371.50;5047761;28;20036;-36
2023/06/04 08:14:27;;;;;;;3.47;2.00;;;20.40;76.20;;;20.49;46.41;97378.06;5051902;28;20024;-36
2023/06/04 08:16:53;;;;;;;7.47;2.35;;;20.50;78.60;;;20.45;46.15;97368.59;5047765;28;20467;-36
2023/06/04 08:19:19;;;;;;;3.72;1.85;;;20.50;79.50;;;20.25;43.56;97354.91;5050027;28;20038;-36
2023/06/04 08:21:47;;;;;;;5.38;2.03;;;20.40;75.00;;;20.41;44.72;97370.66;5047298;28;20043;-36
2023/06/04 08:24:13;;;;;;;3.67;2.13;;;20.40;76.80;;;20.46;42.14;97367.59;5049750;28;20490;-36
2023/06/04 08:26:39;;;;;;;3.72;2.10;;;20.40;74.20;;;20.40;44.40;97364.44;5043382;28;20029;-36
2023/06/04 08:29:05;;;;;;;4.05;2.55;;;20.40;76.10;;;20.45;44.33;97364.06;5051655;28;20024;-36
2023/06/04 08:31:31;;;;;;;2.78;2.00;;;20.50;76.00;;;20.54;44.54;97365.19;5049348;28;20029;-36
2023/06/04 08:33:57;;;;;;;4.38;2.05;;;20.50;76.20;;;20.66;45.17;97369.63;5048009;28;20131;-36
2023/06/04 08:36:23;;;;;;;5.85;2.20;;;20.60;77.90;;;20.71;43.45;97371.91;5049495;28;20041;-36
2023/06/04 08:38:50;;;;;;;4.97;2.22;;;20.70;75.70;;;20.72;42.35;97373.63;5049627;28;20039;-36
2023/06/04 08:41:30;;;;;;;4.65;2.25;;;20.80;74.00;;;20.85;43.87;97360.13;5047681;28;20388;-36
2023/06/04 08:44:02;;;;;;;6.53;2.53;;;20.80;75.50;;;20.90;44.38;97374.84;5047538;28;20041;-36
2023/06/04 08:46:31;;;;;;;3.80;2.03;;;20.90;76.00;;;20.91;43.87;97367.69;5044790;28;20021;-36
2023/06/04 08:49:03;;;;;;;6.50;2.58;;;20.90;74.30;;;20.94;43.71;97378.16;5049144;28;20028;-36
2023/06/04 08:51:33;;;;;;;4.95;2.28;;;20.90;74.90;;;20.96;43.40;97366.34;5051912;28;20149;-36
2023/06/04 08:53:59;;;;;;;4.30;2.40;;;21.00;74.30;;;21.01;43.39;97357.06;5048473;28;20622;-36
2023/06/04 08:56:26;;;;;;;4.53;1.95;;;21.00;75.20;;;21.19;43.09;97362.78;5050204;28;20021;-36
2023/06/04 08:58:52;;;;;;;4.05;2.53;;;21.10;74.70;;;21.25;43.68;97368.50;5047318;28;20393;-36
2023/06/04 09:01:18;;;;;;;3.50;2.05;;;21.20;77.20;;;21.34;43.53;97364.22;5045962;28;20033;-36
2023/06/04 09:03:45;;;;;;;4.85;2.35;;;21.30;74.60;;;21.34;43.94;97367.75;5049857;28;20043;-36
2023/06/04 09:06:11;;;;;;;3.22;2.13;;;21.30;75.60;;;21.43;43.63;97368.84;5049445;28;20573;-36
2023/06/04 09:08:43;;;;;;;3.20;1.98;;;21.40;75.30;;;21.50;43.30;97371.91;5049110;28;20029;-36
2023/06/04 09:11:11;;;;;;;4.57;2.15;;;21.50;74.00;;;21.53;43.03;97372.53;5048114;28;20037;-36
2023/06/04 09:13:38;;;;;;;2.42;1.95;;;21.50;74.40;;;21.59;42.94;97372.97;5048021;28;20036;-36
2023/06/04 09:16:05;;;;;;;3.13;2.03;;;21.60;74.50;;;21.62;42.17;97378.09;5048065;28;20064;-36
2023/06/04 09:18:32;;;;;;;7.90;2.20;;;21.60;73.00;;;21.71;42.41;97371.97;5050849;28;20031;-36
2023/06/04 09:21:15;;;;;;;2.97;1.92;;;21.70;74.10;;;21.75;43.74;97370.75;5048618;28;20033;-36
2023/06/04 09:23:46;;;;;;;2.75;1.92;;;21.80;75.20;;;21.80;42.46;97373.03;5049529;28;20024;-36
2023/06/04 09:26:12;;;;;;;4.60;2.20;;;21.80;73.30;;;21.71;40.24;97371.97;5048355;28;20025;-36
2023/06/04 09:28:42;;;;;;;3.55;2.10;;;21.80;70.40;;;21.79;42.14;97376.72;5047426;28;20120;-36
2023/06/04 09:31:10;;;;;;;3.97;2.33;;;21.80;72.70;;;21.83;41.13;97387.06;5048949;28;20025;-36
2023/06/04 09:33:47;;;;;;;6.25;2.53;;;21.80;71.60;;;21.80;41.51;97379.25;5045545;28;20500;-36
2023/06/04 09:36:13;;;;;;;3.45;2.10;;;21.80;71.40;;;21.76;41.84;97352.81;5049395;28;20033;-36
2023/06/04 09:38:39;;;;;;;5.07;2.40;;;21.90;72.70;;;21.90;43.58;97380.19;5049093;28;20104;-36
2023/06/04 09:41:16;;;;;;;3.03;2.22;;;21.90;74.60;;;21.92;42.24;97372.84;5049075;28;20307;-36
2023/06/04 09:43:43;;;;;;;4.65;2.63;;;22.00;73.30;;;21.97;40.79;97363.59;5047669;28;20037;-36
2023/06/04 09:46:15;;;;;;;3.47;2.30;;;22.00;71.20;;;22.13;41.58;97361.31;5050209;28;20052;-36
2023/06/04 09:48:43;;;;;;;3.80;2.20;;;22.10;71.60;;;22.22;43.44;97363.22;5048114;28;20016;-36
2023/06/04 09:51:19;;;;;;;2.78;2.10;;;22.20;73.90;;;22.33;42.00;97361.47;5048359;28;20317;-36
2023/06/04 09:53:55;;;;;;;2.65;2.03;;;22.30;72.50;;;22.45;41.51;97372.03;5050958;28;20484;-36
2023/06/04 09:56:21;;;;;;;2.97;2.22;;;22.40;72.20;;;22.56;41.04;97379.16;5047969;28;20365;-36
2023/06/04 09:58:49;;;;;;;6.47;2.78;;;22.50;71.40;;;22.44;39.86;97358.72;5047043;28;20029;-36
2023/06/04 10:01:15;;;;;;;4.65;2.40;;;22.50;69.70;;;22.51;40.39;97364.44;5045895;28;20051;-36
2023/06/04 10:03:47;;;;;;;5.03;2.42;;;22.50;69.80;;;22.56;41.67;97368.41;5050383;28;20040;-37
2023/06/04 10:06:16;;;;;;;3.70;2.40;;;22.60;72.30;;;22.69;39.11;97365.50;5047396;28;20344;-36
2023/06/04 10:08:42;;;;;;;3.22;2.33;;;22.60;69.40;;;22.65;38.41;97372.16;5047778;28;20082;-36
2023/06/04 10:11:11;;;;;;;5.65;2.95;;;22.60;66.30;;;22.75;38.16;97369.50;5046691;28;20456;-36
2023/06/04 10:14:00;;;;;;;7.95;3.05;;;22.70;67.10;;;22.68;38.51;97369.16;5047947;28;20025;-36
2023/06/04 10:16:26;;;;;;;5.72;3.17;;;22.70;66.50;;;22.69;38.99;97363.66;5048913;28;20032;-36
2023/06/04 10:18:57;;;;;;;4.15;2.58;;;22.70;66.50;;;22.79;39.42;97373.59;5048693;28;20348;-36